17°C Temp
15°C Point de rosée
88% Humidité
Température
10 KM/H
6 MPH
5 KTS
230°
Sud Ouest

Vitesse du Vent
Données hors ligne
Préssion 1009.92 (hPa) - 29.82 (in)
Visibilité 6.2 (mi) - 10.0 (km)

Conditions Actuelles
LFBU
Location 6(km)
Metar :LFBU 190300Z AUTO 23005KT 200V270 9999 ///TCU 17/15 Q1010
Dernière mise à jour: 19-06-2019 05:40

Aéroport
  Métar Aviation Données API fournies par https://www.checkwx.com/ PHP scripts by weather34.com ©2019